Adger, AL

10:37 AM CDT on March 26, 2017 (GMT -0500)
Alliance | | Change Station

Elev 545 ft 33.52 °N, 87.14 °W | Updated 1 second ago

Overcast
Overcast
63.3 °F
Feels Like 63.3 °F
N
5.3
Wind Variable Wind from WSW

Today
High -- | Low -- °F
--% Chance of Precip.
Yesterday
High -- | Low -- °F
Precip. -- in
Pressure 30.09 in
Visibility 10.0 miles
Clouds Mostly Cloudy 1500 ft
Overcast 2300 ft
Dew Point 61 °F
Humidity 92%
Rainfall 0.00 in
Snow Depth Not available.
6:44 AM 7:05 PM
Waning Crescent, 3% visible
METAR KBHM 261453Z 16008KT 10SM BKN015 OVC023 18/15 A3010 RMK AO2 SLP190 T01780150 51015
Pressure 30.09 in
Visibility 10.0 miles
Clouds Mostly Cloudy 1500 ft
Overcast 2300 ft
Dew Point 61 °F
Humidity 92%
Rainfall 0.00 in
Snow Depth Not available.
6:44 AM 7:05 PM
Waning Crescent, 3% visible
METAR KBHM 261453Z 16008KT 10SM BKN015 OVC023 18/15 A3010 RMK AO2 SLP190 T01780150 51015

Get Severe Weather Alerts

Thanks for signing up!

Be on the lookout for a verification email in your inbox.

You'll start receiving the daily forecast at 8 AM.

×

10-Day Weather Forecast

Almanac

Astronomy

Mar. 26, 2017 Rise Set
Actual Time
Civil Twilight
Nautical Twilight
Astronomical Twilight
Moon
Length of Visible Light
Length of Day
Tomorrow will be .
, % of the Moon is Illuminated

Today's Extremes

State Highs State Lows

Community

WunderPhotos

Upload Photos

1,962,540 photos uploaded!

WunderBlog® & News

Nearby

Air Quality

  Air Quality AQ Index Pollutant
Not available.

Snow Depth

Station Depth Elevation

Earthquake Activity

City Distance Mag. Time & Date
Minimum magnitude displayed is 2.5.

Earthquake Activity

City Distance Mag. Time & Date
Minimum magnitude displayed is 2.5.

Coastal Water Temperatures

Place Temperature

Stations

Nearby Weather Stations

Station Location Temp. Windchill Dew Point Humidity Wind Precip. Elev Updated Type
                   

Watches & Warnings

There are currently no watches in effect.